sensor_id;sensor_type;location;lat;lon;timestamp;pressure;altitude;pressure_sealevel;temperature;humidity
67517;BME280;54359;59.124;37.910;2023-02-15T00:01:38;100411.31;;;-3.06;77.11
67517;BME280;54359;59.124;37.910;2023-02-15T00:04:05;100411.22;;;-3.07;77.79
67517;BME280;54359;59.124;37.910;2023-02-15T00:06:32;100412.50;;;-3.12;77.54
67517;BME280;54359;59.124;37.910;2023-02-15T00:08:58;100412.50;;;-3.12;77.28
67517;BME280;54359;59.124;37.910;2023-02-15T00:11:24;100406.16;;;-3.19;77.48
67517;BME280;54359;59.124;37.910;2023-02-15T00:14:10;100413.94;;;-3.16;78.10
67517;BME280;54359;59.124;37.910;2023-02-15T00:16:38;100412.72;;;-3.21;77.77
67517;BME280;54359;59.124;37.910;2023-02-15T00:19:04;100406.06;;;-3.32;77.61
67517;BME280;54359;59.124;37.910;2023-02-15T00:21:31;100413.50;;;-3.34;77.79
67517;BME280;54359;59.124;37.910;2023-02-15T00:23:59;100396.72;;;-3.45;77.55
67517;BME280;54359;59.124;37.910;2023-02-15T00:26:25;100410.75;;;-3.49;77.36
67517;BME280;54359;59.124;37.910;2023-02-15T00:28:51;100419.47;;;-3.44;77.56
67517;BME280;54359;59.124;37.910;2023-02-15T00:31:18;100416.75;;;-3.47;78.07
67517;BME280;54359;59.124;37.910;2023-02-15T00:33:44;100417.38;;;-3.49;77.41
67517;BME280;54359;59.124;37.910;2023-02-15T00:36:10;100427.97;;;-3.53;77.59
67517;BME280;54359;59.124;37.910;2023-02-15T00:38:37;100423.59;;;-3.56;77.49
67517;BME280;54359;59.124;37.910;2023-02-15T00:41:05;100423.47;;;-3.57;77.25
67517;BME280;54359;59.124;37.910;2023-02-15T00:43:32;100423.69;;;-3.66;77.88
67517;BME280;54359;59.124;37.910;2023-02-15T00:45:58;100435.72;;;-3.62;78.01
67517;BME280;54359;59.124;37.910;2023-02-15T00:48:24;100431.34;;;-3.65;77.46
67517;BME280;54359;59.124;37.910;2023-02-15T00:50:52;100443.25;;;-3.62;77.82
67517;BME280;54359;59.124;37.910;2023-02-15T00:53:19;100439.75;;;-3.64;78.30
67517;BME280;54359;59.124;37.910;2023-02-15T00:55:45;100437.88;;;-3.67;78.11
67517;BME280;54359;59.124;37.910;2023-02-15T00:58:12;100438.41;;;-3.71;77.93
67517;BME280;54359;59.124;37.910;2023-02-15T01:00:40;100437.66;;;-3.70;77.83
67517;BME280;54359;59.124;37.910;2023-02-15T01:03:06;100438.41;;;-3.71;77.76
67517;BME280;54359;59.124;37.910;2023-02-15T01:05:32;100452.50;;;-3.73;77.48
67517;BME280;54359;59.124;37.910;2023-02-15T01:07:58;100457.41;;;-3.74;77.65
67517;BME280;54359;59.124;37.910;2023-02-15T01:10:25;100445.16;;;-3.81;77.42
67517;BME280;54359;59.124;37.910;2023-02-15T01:12:52;100439.78;;;-3.86;77.82
67517;BME280;54359;59.124;37.910;2023-02-15T01:15:18;100450.94;;;-3.82;77.72
67517;BME280;54359;59.124;37.910;2023-02-15T01:17:44;100446.56;;;-3.85;78.05
67517;BME280;54359;59.124;37.910;2023-02-15T01:20:17;100440.97;;;-3.93;78.01
67517;BME280;54359;59.124;37.910;2023-02-15T01:22:43;100435.78;;;-4.06;77.51
67517;BME280;54359;59.124;37.910;2023-02-15T01:25:09;100457.31;;;-3.98;78.04
67517;BME280;54359;59.124;37.910;2023-02-15T01:27:35;100448.97;;;-4.09;78.28
67517;BME280;54359;59.124;37.910;2023-02-15T01:30:01;100465.25;;;-4.03;77.94
67517;BME280;54359;59.124;37.910;2023-02-15T01:32:26;100465.78;;;-4.08;78.29
67517;BME280;54359;59.124;37.910;2023-02-15T01:34:52;100467.06;;;-4.13;78.28
67517;BME280;54359;59.124;37.910;2023-02-15T01:37:18;100462.69;;;-4.15;78.24
67517;BME280;54359;59.124;37.910;2023-02-15T01:39:44;100468.22;;;-4.19;78.27
67517;BME280;54359;59.124;37.910;2023-02-15T01:42:11;100476.88;;;-4.16;78.36
67517;BME280;54359;59.124;37.910;2023-02-15T01:47:43;100469.63;;;-4.23;78.34
67517;BME280;54359;59.124;37.910;2023-02-15T01:50:17;100482.81;;;-4.26;78.12
67517;BME280;54359;59.124;37.910;2023-02-15T01:52:49;100489.22;;;-4.29;78.02
67517;BME280;54359;59.124;37.910;2023-02-15T01:55:15;100491.63;;;-4.31;78.32
67517;BME280;54359;59.124;37.910;2023-02-15T01:57:43;100483.50;;;-4.38;78.11
67517;BME280;54359;59.124;37.910;2023-02-15T02:00:09;100484.50;;;-4.36;78.35
67517;BME280;54359;59.124;37.910;2023-02-15T02:02:40;100484.16;;;-4.41;78.26
67517;BME280;54359;59.124;37.910;2023-02-15T02:05:08;100480.38;;;-4.46;78.14
67517;BME280;54359;59.124;37.910;2023-02-15T02:07:43;100500.81;;;-4.41;78.52
67517;BME280;54359;59.124;37.910;2023-02-15T02:10:13;100490.56;;;-4.45;78.42
67517;BME280;54359;59.124;37.910;2023-02-15T02:12:42;100484.28;;;-4.50;78.15
67517;BME280;54359;59.124;37.910;2023-02-15T02:15:11;100496.44;;;-4.44;78.38
67517;BME280;54359;59.124;37.910;2023-02-15T02:17:57;100493.09;;;-4.55;78.23
67517;BME280;54359;59.124;37.910;2023-02-15T02:26:31;100498.72;;;-4.47;78.55
67517;BME280;54359;59.124;37.910;2023-02-15T02:29:51;100507.75;;;-4.49;78.45
67517;BME280;54359;59.124;37.910;2023-02-15T02:33:46;100504.25;;;-4.51;78.40
67517;BME280;54359;59.124;37.910;2023-02-15T02:38:27;100517.66;;;-4.51;78.74
67517;BME280;54359;59.124;37.910;2023-02-15T02:49:43;100502.38;;;-4.64;78.52
67517;BME280;54359;59.124;37.910;2023-02-15T02:52:41;100522.34;;;-4.55;78.44
67517;BME280;54359;59.124;37.910;2023-02-15T02:55:30;100523.94;;;-4.56;78.64
67517;BME280;54359;59.124;37.910;2023-02-15T03:00:58;100527.97;;;-4.58;78.47
67517;BME280;54359;59.124;37.910;2023-02-15T03:03:50;100521.84;;;-4.61;78.54
67517;BME280;54359;59.124;37.910;2023-02-15T03:06:43;100521.84;;;-4.61;78.66
67517;BME280;54359;59.124;37.910;2023-02-15T03:09:25;100535.47;;;-4.58;78.59
67517;BME280;54359;59.124;37.910;2023-02-15T03:12:02;100522.59;;;-4.62;78.53
67517;BME280;54359;59.124;37.910;2023-02-15T03:14:35;100513.94;;;-4.66;78.56
67517;BME280;54359;59.124;37.910;2023-02-15T03:17:04;100535.75;;;-4.65;78.54
67517;BME280;54359;59.124;37.910;2023-02-15T03:19:35;100536.63;;;-4.65;78.46
67517;BME280;54359;59.124;37.910;2023-02-15T03:22:29;100528.97;;;-4.66;78.63
67517;BME280;54359;59.124;37.910;2023-02-15T03:25:34;100534.13;;;-4.65;78.54
67517;BME280;54359;59.124;37.910;2023-02-15T03:28:13;100537.50;;;-4.64;78.58
67517;BME280;54359;59.124;37.910;2023-02-15T03:30:44;100543.03;;;-4.68;78.45
67517;BME280;54359;59.124;37.910;2023-02-15T03:33:13;100542.41;;;-4.66;78.79
67517;BME280;54359;59.124;37.910;2023-02-15T03:35:49;100548.31;;;-4.65;78.70
67517;BME280;54359;59.124;37.910;2023-02-15T03:38:25;100544.03;;;-4.66;78.45
67517;BME280;54359;59.124;37.910;2023-02-15T03:40:56;100545.53;;;-4.68;78.62
67517;BME280;54359;59.124;37.910;2023-02-15T03:43:56;100553.06;;;-4.68;78.78
67517;BME280;54359;59.124;37.910;2023-02-15T03:46:37;100549.03;;;-4.66;78.88
67517;BME280;54359;59.124;37.910;2023-02-15T03:52:10;100555.84;;;-4.65;78.63
67517;BME280;54359;59.124;37.910;2023-02-15T03:54:37;100546.19;;;-4.71;78.73
67517;BME280;54359;59.124;37.910;2023-02-15T03:57:16;100542.94;;;-4.70;78.80
67517;BME280;54359;59.124;37.910;2023-02-15T04:00:05;100552.69;;;-4.73;78.60
67517;BME280;54359;59.124;37.910;2023-02-15T04:03:21;100559.50;;;-4.72;78.92
67517;BME280;54359;59.124;37.910;2023-02-15T04:05:44;100575.41;;;-4.71;78.96
67517;BME280;54359;59.124;37.910;2023-02-15T04:08:10;100577.78;;;-4.73;78.62
67517;BME280;54359;59.124;37.910;2023-02-15T04:10:37;100569.91;;;-4.77;78.69
67517;BME280;54359;59.124;37.910;2023-02-15T04:13:23;100576.13;;;-4.72;79.32
67517;BME280;54359;59.124;37.910;2023-02-15T04:15:50;100584.56;;;-4.72;78.70
67517;BME280;54359;59.124;37.910;2023-02-15T04:18:40;100586.81;;;-4.75;78.94
67517;BME280;54359;59.124;37.910;2023-02-15T04:21:26;100588.81;;;-4.71;78.86
67517;BME280;54359;59.124;37.910;2023-02-15T04:24:13;100590.59;;;-4.70;78.74
67517;BME280;54359;59.124;37.910;2023-02-15T04:26:58;100587.06;;;-4.72;78.65
67517;BME280;54359;59.124;37.910;2023-02-15T04:29:25;100589.06;;;-4.68;78.75
67517;BME280;54359;59.124;37.910;2023-02-15T04:31:52;100586.31;;;-4.71;78.98
67517;BME280;54359;59.124;37.910;2023-02-15T04:34:19;100592.44;;;-4.67;78.97
67517;BME280;54359;59.124;37.910;2023-02-15T04:36:45;100603.47;;;-4.65;78.98
67517;BME280;54359;59.124;37.910;2023-02-15T04:39:15;100607.88;;;-4.62;78.69
67517;BME280;54359;59.124;37.910;2023-02-15T04:41:42;100602.84;;;-4.62;78.74
67517;BME280;54359;59.124;37.910;2023-02-15T04:44:09;100601.22;;;-4.62;78.60
67517;BME280;54359;59.124;37.910;2023-02-15T04:46:35;100610.38;;;-4.62;78.96
67517;BME280;54359;59.124;37.910;2023-02-15T04:49:01;100601.72;;;-4.66;78.56
67517;BME280;54359;59.124;37.910;2023-02-15T04:51:27;100603.34;;;-4.67;78.87
67517;BME280;54359;59.124;37.910;2023-02-15T04:53:52;100612.75;;;-4.64;78.70
67517;BME280;54359;59.124;37.910;2023-02-15T04:56:20;100623.56;;;-4.65;78.82
67517;BME280;54359;59.124;37.910;2023-02-15T04:58:46;100603.84;;;-4.71;78.98
67517;BME280;54359;59.124;37.910;2023-02-15T05:01:13;100605.63;;;-4.70;78.97
67517;BME280;54359;59.124;37.910;2023-02-15T05:03:39;100610.66;;;-4.70;79.02
67517;BME280;54359;59.124;37.910;2023-02-15T05:06:05;100617.75;;;-4.64;79.13
67517;BME280;54359;59.124;37.910;2023-02-15T05:08:31;100622.78;;;-4.64;78.53
67517;BME280;54359;59.124;37.910;2023-02-15T05:10:57;100615.66;;;-4.70;79.11
67517;BME280;54359;59.124;37.910;2023-02-15T05:13:23;100616.41;;;-4.71;78.67
67517;BME280;54359;59.124;37.910;2023-02-15T05:15:49;100624.69;;;-4.61;78.87
67517;BME280;54359;59.124;37.910;2023-02-15T05:18:16;100625.41;;;-4.62;78.72
67517;BME280;54359;59.124;37.910;2023-02-15T05:20:45;100625.56;;;-4.61;78.93
67517;BME280;54359;59.124;37.910;2023-02-15T05:23:13;100630.44;;;-4.52;78.95
67517;BME280;54359;59.124;37.910;2023-02-15T05:26:05;100633.06;;;-4.51;79.02
67517;BME280;54359;59.124;37.910;2023-02-15T05:28:56;100636.59;;;-4.49;78.89
67517;BME280;54359;59.124;37.910;2023-02-15T05:31:23;100627.19;;;-4.51;78.72
67517;BME280;54359;59.124;37.910;2023-02-15T05:33:51;100621.91;;;-4.54;78.64
67517;BME280;54359;59.124;37.910;2023-02-15T05:36:17;100638.72;;;-4.43;79.00
67517;BME280;54359;59.124;37.910;2023-02-15T05:38:43;100638.06;;;-4.40;78.76
67517;BME280;54359;59.124;37.910;2023-02-15T05:41:12;100637.94;;;-4.42;79.03
67517;BME280;54359;59.124;37.910;2023-02-15T05:43:38;100644.31;;;-4.35;78.57
67517;BME280;54359;59.124;37.910;2023-02-15T05:46:08;100642.44;;;-4.38;78.53
67517;BME280;54359;59.124;37.910;2023-02-15T05:48:34;100645.09;;;-4.36;78.88
67517;BME280;54359;59.124;37.910;2023-02-15T05:51:17;100652.75;;;-4.35;78.88
67517;BME280;54359;59.124;37.910;2023-02-15T05:54:03;100647.34;;;-4.39;78.62
67517;BME280;54359;59.124;37.910;2023-02-15T05:56:30;100630.94;;;-4.56;79.38
67517;BME280;54359;59.124;37.910;2023-02-15T05:59:07;100653.63;;;-4.45;78.87
67517;BME280;54359;59.124;37.910;2023-02-15T06:01:33;100647.34;;;-4.50;78.87
67517;BME280;54359;59.124;37.910;2023-02-15T06:04:01;100665.53;;;-4.42;78.83
67517;BME280;54359;59.124;37.910;2023-02-15T06:06:29;100654.28;;;-4.47;79.03
67517;BME280;54359;59.124;37.910;2023-02-15T06:08:56;100667.31;;;-4.41;79.01
67517;BME280;54359;59.124;37.910;2023-02-15T06:11:22;100666.03;;;-4.36;78.89
67517;BME280;54359;59.124;37.910;2023-02-15T06:13:48;100666.81;;;-4.37;78.99
67517;BME280;54359;59.124;37.910;2023-02-15T06:16:14;100674.84;;;-4.31;78.96
67517;BME280;54359;59.124;37.910;2023-02-15T06:18:42;100665.91;;;-4.27;79.07
67517;BME280;54359;59.124;37.910;2023-02-15T06:21:08;100653.13;;;-4.30;79.33
67517;BME280;54359;59.124;37.910;2023-02-15T06:23:37;100654.34;;;-4.25;79.46
67517;BME280;54359;59.124;37.910;2023-02-15T06:26:06;100657.97;;;-4.21;79.02
67517;BME280;54359;59.124;37.910;2023-02-15T06:28:31;100662.13;;;-4.12;79.01
67517;BME280;54359;59.124;37.910;2023-02-15T06:30:58;100685.56;;;-4.01;79.12
67517;BME280;54359;59.124;37.910;2023-02-15T06:33:27;100664.84;;;-4.09;78.79
67517;BME280;54359;59.124;37.910;2023-02-15T06:35:54;100668.63;;;-4.03;79.26
67517;BME280;54359;59.124;37.910;2023-02-15T06:38:22;100667.97;;;-4.01;78.61
67517;BME280;54359;59.124;37.910;2023-02-15T06:40:49;100686.31;;;-3.92;78.93
67517;BME280;54359;59.124;37.910;2023-02-15T06:43:19;100675.88;;;-3.96;79.00
67517;BME280;54359;59.124;37.910;2023-02-15T06:45:45;100685.16;;;-3.85;78.40
67517;BME280;54359;59.124;37.910;2023-02-15T06:48:25;100693.69;;;-3.83;78.98
67517;BME280;54359;59.124;37.910;2023-02-15T06:50:52;100699.69;;;-3.81;78.70
67517;BME280;54359;59.124;37.910;2023-02-15T06:53:20;100689.88;;;-3.78;78.65
67517;BME280;54359;59.124;37.910;2023-02-15T06:55:50;100703.91;;;-3.70;78.78
67517;BME280;54359;59.124;37.910;2023-02-15T06:58:22;100688.50;;;-3.74;78.91
67517;BME280;54359;59.124;37.910;2023-02-15T07:00:53;100694.16;;;-3.77;78.55
67517;BME280;54359;59.124;37.910;2023-02-15T07:03:23;100715.72;;;-3.58;78.68
67517;BME280;54359;59.124;37.910;2023-02-15T07:05:55;100697.13;;;-3.60;78.74
67517;BME280;54359;59.124;37.910;2023-02-15T07:08:23;100684.59;;;-3.71;78.35
67517;BME280;54359;59.124;37.910;2023-02-15T07:10:54;100698.28;;;-3.67;78.66
67517;BME280;54359;59.124;37.910;2023-02-15T07:13:23;100717.19;;;-3.50;78.77
67517;BME280;54359;59.124;37.910;2023-02-15T07:15:50;100719.31;;;-3.45;78.32
67517;BME280;54359;59.124;37.910;2023-02-15T07:18:17;100688.78;;;-3.49;78.41
67517;BME280;54359;59.124;37.910;2023-02-15T07:20:44;100713.00;;;-3.39;78.10
67517;BME280;54359;59.124;37.910;2023-02-15T07:23:10;100712.00;;;-3.41;78.62
67517;BME280;54359;59.124;37.910;2023-02-15T07:25:37;100719.25;;;-3.34;78.60
67517;BME280;54359;59.124;37.910;2023-02-15T07:28:08;100720.78;;;-3.36;78.95
67517;BME280;54359;59.124;37.910;2023-02-15T07:30:34;100709.94;;;-3.35;78.87
67517;BME280;54359;59.124;37.910;2023-02-15T07:33:13;100726.38;;;-3.29;78.76
67517;BME280;54359;59.124;37.910;2023-02-15T07:35:55;100729.63;;;-3.19;78.68
67517;BME280;54359;59.124;37.910;2023-02-15T07:38:26;100726.72;;;-3.14;78.75
67517;BME280;54359;59.124;37.910;2023-02-15T07:41:01;100728.06;;;-3.07;78.78
67517;BME280;54359;59.124;37.910;2023-02-15T07:43:29;100730.69;;;-3.06;78.43
67517;BME280;54359;59.124;37.910;2023-02-15T07:46:03;100737.06;;;-2.99;79.17
67517;BME280;54359;59.124;37.910;2023-02-15T07:48:35;100734.66;;;-2.97;78.95
67517;BME280;54359;59.124;37.910;2023-02-15T07:51:06;100718.13;;;-3.06;79.18
67517;BME280;54359;59.124;37.910;2023-02-15T07:53:33;100732.72;;;-2.90;78.83
67517;BME280;54359;59.124;37.910;2023-02-15T07:56:05;100713.97;;;-3.05;78.82
67517;BME280;54359;59.124;37.910;2023-02-15T07:58:40;100720.56;;;-2.95;78.58
67517;BME280;54359;59.124;37.910;2023-02-15T08:03:53;100734.59;;;-2.87;79.06
67517;BME280;54359;59.124;37.910;2023-02-15T08:06:25;100740.72;;;-2.84;78.13
67517;BME280;54359;59.124;37.910;2023-02-15T08:08:51;100742.91;;;-2.88;78.81
67517;BME280;54359;59.124;37.910;2023-02-15T08:11:32;100744.22;;;-2.93;77.83
67517;BME280;54359;59.124;37.910;2023-02-15T08:14:13;100697.84;;;-3.29;77.88
67517;BME280;54359;59.124;37.910;2023-02-15T08:16:54;100751.50;;;-2.96;78.61
67517;BME280;54359;59.124;37.910;2023-02-15T08:19:30;100737.94;;;-2.98;78.04
67517;BME280;54359;59.124;37.910;2023-02-15T08:22:14;100753.03;;;-2.76;78.77
67517;BME280;54359;59.124;37.910;2023-02-15T08:24:51;100750.09;;;-2.71;78.50
67517;BME280;54359;59.124;37.910;2023-02-15T08:27:22;100745.00;;;-2.60;78.69
67517;BME280;54359;59.124;37.910;2023-02-15T08:29:54;100730.56;;;-2.51;78.27
67517;BME280;54359;59.124;37.910;2023-02-15T08:32:21;100746.38;;;-2.30;78.71
67517;BME280;54359;59.124;37.910;2023-02-15T08:34:54;100756.94;;;-2.12;78.42
67517;BME280;54359;59.124;37.910;2023-02-15T08:37:23;100758.41;;;-1.92;78.17
67517;BME280;54359;59.124;37.910;2023-02-15T08:39:52;100750.63;;;-1.84;77.73
67517;BME280;54359;59.124;37.910;2023-02-15T08:42:17;100765.00;;;-1.71;78.04
67517;BME280;54359;59.124;37.910;2023-02-15T08:44:45;100752.06;;;-1.75;77.80
67517;BME280;54359;59.124;37.910;2023-02-15T08:47:14;100728.94;;;-1.93;77.37
67517;BME280;54359;59.124;37.910;2023-02-15T08:49:39;100772.56;;;-1.71;77.96
67517;BME280;54359;59.124;37.910;2023-02-15T08:52:05;100757.88;;;-1.76;78.35
67517;BME280;54359;59.124;37.910;2023-02-15T08:54:31;100772.78;;;-1.56;78.15
67517;BME280;54359;59.124;37.910;2023-02-15T08:56:59;100755.59;;;-1.62;77.80
67517;BME280;54359;59.124;37.910;2023-02-15T08:59:26;100759.09;;;-1.59;78.29
67517;BME280;54359;59.124;37.910;2023-02-15T09:01:57;100761.72;;;-1.58;77.69
67517;BME280;54359;59.124;37.910;2023-02-15T09:04:24;100766.66;;;-1.48;77.60
67517;BME280;54359;59.124;37.910;2023-02-15T09:06:51;100750.44;;;-1.51;77.83
67517;BME280;54359;59.124;37.910;2023-02-15T09:09:18;100765.13;;;-1.46;78.01
67517;BME280;54359;59.124;37.910;2023-02-15T09:11:47;100767.41;;;-1.49;78.15
67517;BME280;54359;59.124;37.910;2023-02-15T09:14:19;100774.31;;;-1.46;77.93
67517;BME280;54359;59.124;37.910;2023-02-15T09:16:46;100763.16;;;-1.50;77.96
67517;BME280;54359;59.124;37.910;2023-02-15T09:19:16;100765.00;;;-1.47;78.04
67517;BME280;54359;59.124;37.910;2023-02-15T09:21:43;100766.00;;;-1.45;77.85
67517;BME280;54359;59.124;37.910;2023-02-15T09:24:12;100771.47;;;-1.39;77.89
67517;BME280;54359;59.124;37.910;2023-02-15T09:26:41;100766.00;;;-1.45;77.87
67517;BME280;54359;59.124;37.910;2023-02-15T09:29:07;100767.09;;;-1.42;78.14
67517;BME280;54359;59.124;37.910;2023-02-15T09:31:42;100768.94;;;-1.39;77.84
67517;BME280;54359;59.124;37.910;2023-02-15T09:34:21;100780.34;;;-1.32;78.04
67517;BME280;54359;59.124;37.910;2023-02-15T09:36:53;100773.13;;;-1.39;77.82
67517;BME280;54359;59.124;37.910;2023-02-15T09:39:24;100782.09;;;-1.31;77.78
67517;BME280;54359;59.124;37.910;2023-02-15T09:48:32;100766.06;;;-1.20;77.70
67517;BME280;54359;59.124;37.910;2023-02-15T09:51:52;100769.00;;;-1.14;77.34
67517;BME280;54359;59.124;37.910;2023-02-15T09:57:32;100776.22;;;-0.95;77.58
67517;BME280;54359;59.124;37.910;2023-02-15T10:08:46;100773.13;;;-0.91;77.63
67517;BME280;54359;59.124;37.910;2023-02-15T10:11:39;100770.56;;;-0.79;77.88
67517;BME280;54359;59.124;37.910;2023-02-15T10:22:35;100778.16;;;-0.79;77.59
67517;BME280;54359;59.124;37.910;2023-02-15T10:25:46;100782.19;;;-0.69;77.58
67517;BME280;54359;59.124;37.910;2023-02-15T10:28:23;100781.88;;;-0.74;77.26
67517;BME280;54359;59.124;37.910;2023-02-15T10:30:53;100782.88;;;-0.72;77.42
67517;BME280;54359;59.124;37.910;2023-02-15T10:42:07;100796.69;;;-0.78;77.47
67517;BME280;54359;59.124;37.910;2023-02-15T10:50:55;100808.75;;;-0.74;77.53
67517;BME280;54359;59.124;37.910;2023-02-15T10:54:54;100810.53;;;-0.73;77.23
67517;BME280;54359;59.124;37.910;2023-02-15T10:57:52;100809.50;;;-0.64;77.24
67517;BME280;54359;59.124;37.910;2023-02-15T11:00:31;100804.66;;;-0.35;77.80
67517;BME280;54359;59.124;37.910;2023-02-15T11:06:09;100791.72;;;0.77;77.53
67517;BME280;54359;59.124;37.910;2023-02-15T11:08:45;100811.38;;;1.36;76.55
67517;BME280;54359;59.124;37.910;2023-02-15T11:11:21;100809.16;;;1.55;75.95
67517;BME280;54359;59.124;37.910;2023-02-15T11:13:51;100813.97;;;1.51;76.00
67517;BME280;54359;59.124;37.910;2023-02-15T11:16:47;100820.50;;;1.75;76.73
67517;BME280;54359;59.124;37.910;2023-02-15T11:19:32;100824.66;;;2.33;77.05
67517;BME280;54359;59.124;37.910;2023-02-15T11:22:02;100810.88;;;2.74;76.52
67517;BME280;54359;59.124;37.910;2023-02-15T11:24:55;100820.41;;;3.24;75.93
67517;BME280;54359;59.124;37.910;2023-02-15T11:27:39;100817.25;;;3.61;76.14
67517;BME280;54359;59.124;37.910;2023-02-15T11:30:18;100791.97;;;3.80;76.45
67517;BME280;54359;59.124;37.910;2023-02-15T11:32:47;100805.31;;;4.27;76.60
67517;BME280;54359;59.124;37.910;2023-02-15T11:35:31;100824.63;;;4.76;76.39
67517;BME280;54359;59.124;37.910;2023-02-15T11:40:49;100822.84;;;5.48;75.51
67517;BME280;54359;59.124;37.910;2023-02-15T11:43:26;100824.03;;;5.76;76.29
67517;BME280;54359;59.124;37.910;2023-02-15T11:45:56;100802.75;;;6.14;76.45
67517;BME280;54359;59.124;37.910;2023-02-15T11:48:29;100820.53;;;6.76;76.58
67517;BME280;54359;59.124;37.910;2023-02-15T11:50:58;100816.63;;;7.29;76.05
67517;BME280;54359;59.124;37.910;2023-02-15T11:53:31;100817.28;;;7.48;75.38
67517;BME280;54359;59.124;37.910;2023-02-15T11:56:02;100806.56;;;7.58;75.45
67517;BME280;54359;59.124;37.910;2023-02-15T11:58:59;100820.94;;;8.02;75.48
67517;BME280;54359;59.124;37.910;2023-02-15T12:01:45;100822.50;;;7.99;75.21
67517;BME280;54359;59.124;37.910;2023-02-15T12:04:20;100820.94;;;7.54;74.68
67517;BME280;54359;59.124;37.910;2023-02-15T12:07:27;100829.19;;;6.16;75.13
67517;BME280;54359;59.124;37.910;2023-02-15T12:10:25;100834.91;;;5.91;77.58
67517;BME280;54359;59.124;37.910;2023-02-15T12:13:17;100826.03;;;6.01;76.56
67517;BME280;54359;59.124;37.910;2023-02-15T12:16:28;100824.97;;;5.78;76.65
67517;BME280;54359;59.124;37.910;2023-02-15T12:18:40;100811.81;;;5.49;76.90
67517;BME280;54359;59.124;37.910;2023-02-15T12:21:31;100815.75;;;5.99;76.87
67517;BME280;54359;59.124;37.910;2023-02-15T12:24:15;100811.28;;;6.57;77.09
67517;BME280;54359;59.124;37.910;2023-02-15T12:26:56;100808.63;;;6.97;76.35
67517;BME280;54359;59.124;37.910;2023-02-15T12:29:56;100822.13;;;7.40;75.30
67517;BME280;54359;59.124;37.910;2023-02-15T12:32:53;100822.31;;;7.44;75.17
67517;BME280;54359;59.124;37.910;2023-02-15T12:35:33;100824.47;;;6.68;74.02
67517;BME280;54359;59.124;37.910;2023-02-15T12:38:21;100838.25;;;5.51;74.65
67517;BME280;54359;59.124;37.910;2023-02-15T12:41:04;100839.88;;;4.40;74.78
67517;BME280;54359;59.124;37.910;2023-02-15T12:43:38;100822.38;;;3.46;75.55
67517;BME280;54359;59.124;37.910;2023-02-15T12:46:23;100844.31;;;2.81;75.76
67517;BME280;54359;59.124;37.910;2023-02-15T12:52:01;100857.63;;;2.77;75.56
67517;BME280;54359;59.124;37.910;2023-02-15T12:54:38;100858.44;;;2.47;75.50
67517;BME280;54359;59.124;37.910;2023-02-15T12:57:25;100861.28;;;2.08;75.27
67517;BME280;54359;59.124;37.910;2023-02-15T12:59:56;100868.66;;;1.75;74.68
67517;BME280;54359;59.124;37.910;2023-02-15T13:02:42;100843.66;;;1.12;75.11
67517;BME280;54359;59.124;37.910;2023-02-15T13:05:38;100869.88;;;0.99;74.71
67517;BME280;54359;59.124;37.910;2023-02-15T13:08:20;100863.03;;;0.71;75.13
67517;BME280;54359;59.124;37.910;2023-02-15T13:11:07;100863.28;;;0.23;74.70
67517;BME280;54359;59.124;37.910;2023-02-15T13:13:59;100873.72;;;0.02;75.19
67517;BME280;54359;59.124;37.910;2023-02-15T13:16:34;100865.34;;;-0.22;75.17
67517;BME280;54359;59.124;37.910;2023-02-15T13:19:33;100890.31;;;-0.27;75.13
67517;BME280;54359;59.124;37.910;2023-02-15T13:22:07;100887.59;;;-0.42;74.91
67517;BME280;54359;59.124;37.910;2023-02-15T13:24:39;100893.34;;;-0.56;74.81
67517;BME280;54359;59.124;37.910;2023-02-15T13:27:17;100895.25;;;-0.77;74.85
67517;BME280;54359;59.124;37.910;2023-02-15T13:29:51;100885.81;;;-0.91;74.65
67517;BME280;54359;59.124;37.910;2023-02-15T13:32:35;100884.50;;;-1.10;74.64
67517;BME280;54359;59.124;37.910;2023-02-15T13:35:05;100897.69;;;-1.14;74.64
67517;BME280;54359;59.124;37.910;2023-02-15T13:37:46;100894.81;;;-1.30;74.41
67517;BME280;54359;59.124;37.910;2023-02-15T13:46:07;100871.06;;;-1.79;74.28
67517;BME280;54359;59.124;37.910;2023-02-15T13:49:14;100896.53;;;-1.53;74.57
67517;BME280;54359;59.124;37.910;2023-02-15T14:01:18;100897.06;;;-2.03;74.42
67517;BME280;54359;59.124;37.910;2023-02-15T14:06:53;100911.19;;;-2.27;74.50
67517;BME280;54359;59.124;37.910;2023-02-15T14:18:57;100918.44;;;-2.74;74.42
67517;BME280;54359;59.124;37.910;2023-02-15T14:21:39;100930.31;;;-2.83;74.48
67517;BME280;54359;59.124;37.910;2023-02-15T14:27:27;100893.06;;;-3.30;74.52
67517;BME280;54359;59.124;37.910;2023-02-15T14:30:21;100914.19;;;-3.38;74.55
67517;BME280;54359;59.124;37.910;2023-02-15T14:33:07;100901.50;;;-3.60;74.00
67517;BME280;54359;59.124;37.910;2023-02-15T14:35:34;100931.94;;;-3.47;74.47
67517;BME280;54359;59.124;37.910;2023-02-15T14:41:03;100911.81;;;-3.77;74.52
67517;BME280;54359;59.124;37.910;2023-02-15T14:49:25;100923.88;;;-3.83;74.53
67517;BME280;54359;59.124;37.910;2023-02-15T14:51:58;100947.38;;;-3.73;74.25
67517;BME280;54359;59.124;37.910;2023-02-15T15:00:00;100960.28;;;-3.78;74.98
67517;BME280;54359;59.124;37.910;2023-02-15T15:03:00;100953.25;;;-3.82;74.67
67517;BME280;54359;59.124;37.910;2023-02-15T15:06:02;100954.50;;;-3.88;73.78
67517;BME280;54359;59.124;37.910;2023-02-15T15:08:34;100960.53;;;-3.96;74.30
67517;BME280;54359;59.124;37.910;2023-02-15T15:11:42;100969.03;;;-4.04;74.47
67517;BME280;54359;59.124;37.910;2023-02-15T15:14:35;100941.97;;;-4.27;75.16
67517;BME280;54359;59.124;37.910;2023-02-15T15:17:10;100963.84;;;-4.26;74.45
67517;BME280;54359;59.124;37.910;2023-02-15T15:26:22;100968.63;;;-4.77;74.77
67517;BME280;54359;59.124;37.910;2023-02-15T15:29:10;100957.59;;;-4.98;74.35
67517;BME280;54359;59.124;37.910;2023-02-15T15:31:53;100968.09;;;-5.02;74.37